sensor_id;sensor_type;location;lat;lon;timestamp;P1;durP1;ratioP1;P2;durP2;ratioP2
64367;SDS011;50692;53.314;-6.300;2023-09-19T00:01:14;6.35;;;2.22;;
64367;SDS011;50692;53.314;-6.300;2023-09-19T00:04:00;8.57;;;2.38;;
64367;SDS011;50692;53.314;-6.300;2023-09-19T00:06:46;5.38;;;2.08;;
64367;SDS011;50692;53.314;-6.300;2023-09-19T00:09:34;7.63;;;2.25;;
64367;SDS011;50692;53.314;-6.300;2023-09-19T00:12:22;8.77;;;2.10;;
64367;SDS011;50692;53.314;-6.300;2023-09-19T00:15:09;10.27;;;2.40;;
64367;SDS011;50692;53.314;-6.300;2023-09-19T00:17:56;7.97;;;2.13;;
64367;SDS011;50692;53.314;-6.300;2023-09-19T00:20:42;7.40;;;2.63;;
64367;SDS011;50692;53.314;-6.300;2023-09-19T00:23:27;10.15;;;2.92;;
64367;SDS011;50692;53.314;-6.300;2023-09-19T00:26:16;7.88;;;2.45;;
64367;SDS011;50692;53.314;-6.300;2023-09-19T00:29:04;5.18;;;2.17;;
64367;SDS011;50692;53.314;-6.300;2023-09-19T00:31:50;6.43;;;2.17;;
64367;SDS011;50692;53.314;-6.300;2023-09-19T00:34:36;5.97;;;2.33;;
64367;SDS011;50692;53.314;-6.300;2023-09-19T00:37:22;10.05;;;2.60;;
64367;SDS011;50692;53.314;-6.300;2023-09-19T00:40:08;9.02;;;2.80;;
64367;SDS011;50692;53.314;-6.300;2023-09-19T00:42:58;9.35;;;2.38;;
64367;SDS011;50692;53.314;-6.300;2023-09-19T00:45:47;6.70;;;2.63;;
64367;SDS011;50692;53.314;-6.300;2023-09-19T00:48:40;7.22;;;3.15;;
64367;SDS011;50692;53.314;-6.300;2023-09-19T00:51:30;4.53;;;2.20;;
64367;SDS011;50692;53.314;-6.300;2023-09-19T00:54:17;14.15;;;3.08;;
64367;SDS011;50692;53.314;-6.300;2023-09-19T00:57:05;10.65;;;2.83;;
64367;SDS011;50692;53.314;-6.300;2023-09-19T00:59:51;6.20;;;2.15;;
64367;SDS011;50692;53.314;-6.300;2023-09-19T01:02:41;5.45;;;1.88;;
64367;SDS011;50692;53.314;-6.300;2023-09-19T01:05:33;7.50;;;2.60;;
64367;SDS011;50692;53.314;-6.300;2023-09-19T01:08:19;5.03;;;1.90;;
64367;SDS011;50692;53.314;-6.300;2023-09-19T01:14:18;8.00;;;1.92;;
64367;SDS011;50692;53.314;-6.300;2023-09-19T01:23:18;2.97;;;1.50;;
64367;SDS011;50692;53.314;-6.300;2023-09-19T01:30:14;2.78;;;1.30;;
64367;SDS011;50692;53.314;-6.300;2023-09-19T01:33:07;5.63;;;1.20;;
64367;SDS011;50692;53.314;-6.300;2023-09-19T01:35:53;5.20;;;1.40;;
64367;SDS011;50692;53.314;-6.300;2023-09-19T01:38:43;2.40;;;1.30;;
64367;SDS011;50692;53.314;-6.300;2023-09-19T01:41:38;2.88;;;1.30;;
64367;SDS011;50692;53.314;-6.300;2023-09-19T01:50:49;4.70;;;1.65;;
64367;SDS011;50692;53.314;-6.300;2023-09-19T02:00:18;3.20;;;1.48;;
64367;SDS011;50692;53.314;-6.300;2023-09-19T02:03:07;4.75;;;1.50;;
64367;SDS011;50692;53.314;-6.300;2023-09-19T02:05:54;5.35;;;1.58;;
64367;SDS011;50692;53.314;-6.300;2023-09-19T02:08:40;4.43;;;1.48;;
64367;SDS011;50692;53.314;-6.300;2023-09-19T02:11:26;5.63;;;2.00;;
64367;SDS011;50692;53.314;-6.300;2023-09-19T02:14:13;4.35;;;2.00;;
64367;SDS011;50692;53.314;-6.300;2023-09-19T02:17:00;5.13;;;2.22;;
64367;SDS011;50692;53.314;-6.300;2023-09-19T02:19:48;5.43;;;1.73;;
64367;SDS011;50692;53.314;-6.300;2023-09-19T02:22:34;6.50;;;2.08;;
64367;SDS011;50692;53.314;-6.300;2023-09-19T02:25:20;5.78;;;1.95;;
64367;SDS011;50692;53.314;-6.300;2023-09-19T02:28:06;6.25;;;2.22;;
64367;SDS011;50692;53.314;-6.300;2023-09-19T02:30:52;6.00;;;2.58;;
64367;SDS011;50692;53.314;-6.300;2023-09-19T02:33:37;7.75;;;2.70;;
64367;SDS011;50692;53.314;-6.300;2023-09-19T02:36:24;5.35;;;2.28;;
64367;SDS011;50692;53.314;-6.300;2023-09-19T02:39:12;5.93;;;2.45;;
64367;SDS011;50692;53.314;-6.300;2023-09-19T02:41:59;8.52;;;2.15;;
64367;SDS011;50692;53.314;-6.300;2023-09-19T02:44:45;7.07;;;2.38;;
64367;SDS011;50692;53.314;-6.300;2023-09-19T02:47:32;6.22;;;3.15;;
64367;SDS011;50692;53.314;-6.300;2023-09-19T02:50:20;3.67;;;1.67;;
64367;SDS011;50692;53.314;-6.300;2023-09-19T02:53:07;4.00;;;1.98;;
64367;SDS011;50692;53.314;-6.300;2023-09-19T02:55:54;4.68;;;2.30;;
64367;SDS011;50692;53.314;-6.300;2023-09-19T02:58:40;7.15;;;3.40;;
64367;SDS011;50692;53.314;-6.300;2023-09-19T03:01:26;4.90;;;2.25;;
64367;SDS011;50692;53.314;-6.300;2023-09-19T03:04:13;7.07;;;2.00;;
64367;SDS011;50692;53.314;-6.300;2023-09-19T03:07:02;3.88;;;1.85;;
64367;SDS011;50692;53.314;-6.300;2023-09-19T03:09:56;2.60;;;1.30;;
64367;SDS011;50692;53.314;-6.300;2023-09-19T03:12:42;5.18;;;2.30;;
64367;SDS011;50692;53.314;-6.300;2023-09-19T03:15:29;2.63;;;1.27;;
64367;SDS011;50692;53.314;-6.300;2023-09-19T03:18:14;2.72;;;1.67;;
64367;SDS011;50692;53.314;-6.300;2023-09-19T03:21:00;3.15;;;1.20;;
64367;SDS011;50692;53.314;-6.300;2023-09-19T03:23:46;2.40;;;1.20;;
64367;SDS011;50692;53.314;-6.300;2023-09-19T03:26:32;3.20;;;1.25;;
64367;SDS011;50692;53.314;-6.300;2023-09-19T03:29:19;4.22;;;1.20;;
64367;SDS011;50692;53.314;-6.300;2023-09-19T03:32:05;2.58;;;1.30;;
64367;SDS011;50692;53.314;-6.300;2023-09-19T03:34:51;2.83;;;0.93;;
64367;SDS011;50692;53.314;-6.300;2023-09-19T03:37:38;1.92;;;1.00;;
64367;SDS011;50692;53.314;-6.300;2023-09-19T03:40:24;2.10;;;0.98;;
64367;SDS011;50692;53.314;-6.300;2023-09-19T03:43:10;1.15;;;0.70;;
64367;SDS011;50692;53.314;-6.300;2023-09-19T03:45:56;3.53;;;0.80;;
64367;SDS011;50692;53.314;-6.300;2023-09-19T03:48:42;1.00;;;0.73;;
64367;SDS011;50692;53.314;-6.300;2023-09-19T03:51:28;0.75;;;0.65;;
64367;SDS011;50692;53.314;-6.300;2023-09-19T03:54:15;1.30;;;0.70;;
64367;SDS011;50692;53.314;-6.300;2023-09-19T03:57:02;1.58;;;0.85;;
64367;SDS011;50692;53.314;-6.300;2023-09-19T03:59:49;3.95;;;1.38;;
64367;SDS011;50692;53.314;-6.300;2023-09-19T04:02:38;3.67;;;1.25;;
64367;SDS011;50692;53.314;-6.300;2023-09-19T04:05:26;4.43;;;1.77;;
64367;SDS011;50692;53.314;-6.300;2023-09-19T04:08:13;1.77;;;1.38;;
64367;SDS011;50692;53.314;-6.300;2023-09-19T04:10:59;2.38;;;1.52;;
64367;SDS011;50692;53.314;-6.300;2023-09-19T04:13:45;1.48;;;0.85;;
64367;SDS011;50692;53.314;-6.300;2023-09-19T04:16:31;2.42;;;0.90;;
64367;SDS011;50692;53.314;-6.300;2023-09-19T04:19:16;4.75;;;1.17;;
64367;SDS011;50692;53.314;-6.300;2023-09-19T04:22:02;2.08;;;1.10;;
64367;SDS011;50692;53.314;-6.300;2023-09-19T04:24:50;2.55;;;1.10;;
64367;SDS011;50692;53.314;-6.300;2023-09-19T04:27:35;2.80;;;1.00;;
64367;SDS011;50692;53.314;-6.300;2023-09-19T04:30:21;2.70;;;1.30;;
64367;SDS011;50692;53.314;-6.300;2023-09-19T04:33:07;2.92;;;1.20;;
64367;SDS011;50692;53.314;-6.300;2023-09-19T04:35:53;2.28;;;1.08;;
64367;SDS011;50692;53.314;-6.300;2023-09-19T04:38:40;4.60;;;1.20;;
64367;SDS011;50692;53.314;-6.300;2023-09-19T04:41:27;1.88;;;1.08;;
64367;SDS011;50692;53.314;-6.300;2023-09-19T04:44:13;2.10;;;0.88;;
64367;SDS011;50692;53.314;-6.300;2023-09-19T04:46:59;2.47;;;1.00;;
64367;SDS011;50692;53.314;-6.300;2023-09-19T04:49:44;2.58;;;1.30;;
64367;SDS011;50692;53.314;-6.300;2023-09-19T04:52:32;3.63;;;1.13;;
64367;SDS011;50692;53.314;-6.300;2023-09-19T04:55:19;2.50;;;1.10;;
64367;SDS011;50692;53.314;-6.300;2023-09-19T04:58:05;1.98;;;1.20;;
64367;SDS011;50692;53.314;-6.300;2023-09-19T05:00:51;2.97;;;1.10;;
64367;SDS011;50692;53.314;-6.300;2023-09-19T05:03:38;1.60;;;1.10;;
64367;SDS011;50692;53.314;-6.300;2023-09-19T05:06:24;2.65;;;1.15;;
64367;SDS011;50692;53.314;-6.300;2023-09-19T05:09:12;1.27;;;0.85;;
64367;SDS011;50692;53.314;-6.300;2023-09-19T05:11:58;0.90;;;0.60;;
64367;SDS011;50692;53.314;-6.300;2023-09-19T05:14:44;2.13;;;0.90;;
64367;SDS011;50692;53.314;-6.300;2023-09-19T05:17:30;1.70;;;0.75;;
64367;SDS011;50692;53.314;-6.300;2023-09-19T05:20:16;1.63;;;0.80;;
64367;SDS011;50692;53.314;-6.300;2023-09-19T05:23:09;1.42;;;0.63;;
64367;SDS011;50692;53.314;-6.300;2023-09-19T05:25:58;0.70;;;0.50;;
64367;SDS011;50692;53.314;-6.300;2023-09-19T05:28:45;1.52;;;0.75;;
64367;SDS011;50692;53.314;-6.300;2023-09-19T05:31:31;0.55;;;0.30;;
64367;SDS011;50692;53.314;-6.300;2023-09-19T05:34:16;1.92;;;0.80;;
64367;SDS011;50692;53.314;-6.300;2023-09-19T05:37:02;0.47;;;0.47;;
64367;SDS011;50692;53.314;-6.300;2023-09-19T05:39:48;0.93;;;0.32;;
64367;SDS011;50692;53.314;-6.300;2023-09-19T05:42:36;0.52;;;0.30;;
64367;SDS011;50692;53.314;-6.300;2023-09-19T05:45:22;0.40;;;0.32;;
64367;SDS011;50692;53.314;-6.300;2023-09-19T05:48:08;0.82;;;0.45;;
64367;SDS011;50692;53.314;-6.300;2023-09-19T05:51:01;1.92;;;0.40;;
64367;SDS011;50692;53.314;-6.300;2023-09-19T05:53:48;1.05;;;0.32;;
64367;SDS011;50692;53.314;-6.300;2023-09-19T05:56:34;0.40;;;0.40;;
64367;SDS011;50692;53.314;-6.300;2023-09-19T05:59:20;0.30;;;0.30;;
64367;SDS011;50692;53.314;-6.300;2023-09-19T06:02:05;1.25;;;0.30;;
64367;SDS011;50692;53.314;-6.300;2023-09-19T06:04:53;0.60;;;0.30;;
64367;SDS011;50692;53.314;-6.300;2023-09-19T06:07:45;0.38;;;0.38;;
64367;SDS011;50692;53.314;-6.300;2023-09-19T06:10:32;0.43;;;0.20;;
64367;SDS011;50692;53.314;-6.300;2023-09-19T06:13:17;0.77;;;0.32;;
64367;SDS011;50692;53.314;-6.300;2023-09-19T06:16:05;0.30;;;0.30;;
64367;SDS011;50692;53.314;-6.300;2023-09-19T06:18:50;0.20;;;0.20;;
64367;SDS011;50692;53.314;-6.300;2023-09-19T06:21:38;0.28;;;0.20;;
64367;SDS011;50692;53.314;-6.300;2023-09-19T06:24:25;0.30;;;0.30;;
64367;SDS011;50692;53.314;-6.300;2023-09-19T06:27:11;0.10;;;0.10;;
64367;SDS011;50692;53.314;-6.300;2023-09-19T06:29:57;0.10;;;0.10;;
64367;SDS011;50692;53.314;-6.300;2023-09-19T06:32:43;0.30;;;0.13;;
64367;SDS011;50692;53.314;-6.300;2023-09-19T06:35:32;0.20;;;0.20;;
64367;SDS011;50692;53.314;-6.300;2023-09-19T06:38:21;0.13;;;0.10;;
64367;SDS011;50692;53.314;-6.300;2023-09-19T06:41:12;0.10;;;0.10;;
64367;SDS011;50692;53.314;-6.300;2023-09-19T06:44:02;0.80;;;0.10;;
64367;SDS011;50692;53.314;-6.300;2023-09-19T06:46:50;0.65;;;0.10;;
64367;SDS011;50692;53.314;-6.300;2023-09-19T06:49:36;0.28;;;0.10;;
64367;SDS011;50692;53.314;-6.300;2023-09-19T06:52:22;1.15;;;0.20;;
64367;SDS011;50692;53.314;-6.300;2023-09-19T06:55:08;1.00;;;0.32;;
64367;SDS011;50692;53.314;-6.300;2023-09-19T06:57:58;0.85;;;0.10;;
64367;SDS011;50692;53.314;-6.300;2023-09-19T07:00:45;0.10;;;0.10;;
64367;SDS011;50692;53.314;-6.300;2023-09-19T07:03:32;0.10;;;0.10;;
64367;SDS011;50692;53.314;-6.300;2023-09-19T07:06:18;0.88;;;0.10;;
64367;SDS011;50692;53.314;-6.300;2023-09-19T07:09:06;0.10;;;0.10;;
64367;SDS011;50692;53.314;-6.300;2023-09-19T07:11:51;0.10;;;0.10;;
64367;SDS011;50692;53.314;-6.300;2023-09-19T07:14:39;0.17;;;0.17;;
64367;SDS011;50692;53.314;-6.300;2023-09-19T07:17:24;0.10;;;0.10;;
64367;SDS011;50692;53.314;-6.300;2023-09-19T07:20:10;0.30;;;0.20;;
64367;SDS011;50692;53.314;-6.300;2023-09-19T07:23:01;0.10;;;0.10;;
64367;SDS011;50692;53.314;-6.300;2023-09-19T07:25:47;0.20;;;0.20;;
64367;SDS011;50692;53.314;-6.300;2023-09-19T07:28:34;0.10;;;0.10;;
64367;SDS011;50692;53.314;-6.300;2023-09-19T07:31:21;0.40;;;0.28;;
64367;SDS011;50692;53.314;-6.300;2023-09-19T07:34:08;0.25;;;0.20;;
64367;SDS011;50692;53.314;-6.300;2023-09-19T07:36:55;0.20;;;0.20;;
64367;SDS011;50692;53.314;-6.300;2023-09-19T07:39:42;0.57;;;0.30;;
64367;SDS011;50692;53.314;-6.300;2023-09-19T07:42:28;0.10;;;0.10;;
64367;SDS011;50692;53.314;-6.300;2023-09-19T07:45:14;0.10;;;0.10;;
64367;SDS011;50692;53.314;-6.300;2023-09-19T07:48:02;0.20;;;0.20;;
64367;SDS011;50692;53.314;-6.300;2023-09-19T07:50:49;1.98;;;0.20;;
64367;SDS011;50692;53.314;-6.300;2023-09-19T07:53:35;0.45;;;0.20;;
64367;SDS011;50692;53.314;-6.300;2023-09-19T07:56:21;0.10;;;0.10;;
64367;SDS011;50692;53.314;-6.300;2023-09-19T07:59:08;0.10;;;0.10;;
64367;SDS011;50692;53.314;-6.300;2023-09-19T08:01:56;0.73;;;0.63;;
64367;SDS011;50692;53.314;-6.300;2023-09-19T08:04:43;0.20;;;0.20;;
64367;SDS011;50692;53.314;-6.300;2023-09-19T08:07:34;0.28;;;0.20;;
64367;SDS011;50692;53.314;-6.300;2023-09-19T08:10:21;0.70;;;0.20;;
64367;SDS011;50692;53.314;-6.300;2023-09-19T08:13:08;0.20;;;0.20;;
64367;SDS011;50692;53.314;-6.300;2023-09-19T08:16:01;1.08;;;0.20;;
64367;SDS011;50692;53.314;-6.300;2023-09-19T08:18:49;0.20;;;0.20;;
64367;SDS011;50692;53.314;-6.300;2023-09-19T08:21:40;0.10;;;0.10;;
64367;SDS011;50692;53.314;-6.300;2023-09-19T08:24:29;0.47;;;0.10;;
64367;SDS011;50692;53.314;-6.300;2023-09-19T08:27:17;0.15;;;0.15;;
64367;SDS011;50692;53.314;-6.300;2023-09-19T08:30:05;0.30;;;0.20;;
64367;SDS011;50692;53.314;-6.300;2023-09-19T08:33:01;0.20;;;0.20;;
64367;SDS011;50692;53.314;-6.300;2023-09-19T08:35:48;0.82;;;0.20;;
64367;SDS011;50692;53.314;-6.300;2023-09-19T08:38:34;0.15;;;0.15;;
64367;SDS011;50692;53.314;-6.300;2023-09-19T08:41:20;0.22;;;0.20;;
64367;SDS011;50692;53.314;-6.300;2023-09-19T08:44:13;0.28;;;0.28;;
64367;SDS011;50692;53.314;-6.300;2023-09-19T08:47:19;0.30;;;0.30;;
64367;SDS011;50692;53.314;-6.300;2023-09-19T08:50:39;0.40;;;0.30;;
64367;SDS011;50692;53.314;-6.300;2023-09-19T08:56:34;0.25;;;0.20;;
64367;SDS011;50692;53.314;-6.300;2023-09-19T08:59:22;0.28;;;0.17;;
64367;SDS011;50692;53.314;-6.300;2023-09-19T09:02:13;0.20;;;0.10;;
64367;SDS011;50692;53.314;-6.300;2023-09-19T09:05:00;0.20;;;0.10;;
64367;SDS011;50692;53.314;-6.300;2023-09-19T09:07:47;0.30;;;0.20;;
64367;SDS011;50692;53.314;-6.300;2023-09-19T09:10:34;0.52;;;0.20;;
64367;SDS011;50692;53.314;-6.300;2023-09-19T09:13:21;0.10;;;0.10;;
64367;SDS011;50692;53.314;-6.300;2023-09-19T09:16:10;0.77;;;0.20;;
64367;SDS011;50692;53.314;-6.300;2023-09-19T09:18:56;0.20;;;0.20;;
64367;SDS011;50692;53.314;-6.300;2023-09-19T09:21:42;0.10;;;0.10;;
64367;SDS011;50692;53.314;-6.300;2023-09-19T09:24:28;0.60;;;0.20;;
64367;SDS011;50692;53.314;-6.300;2023-09-19T09:27:14;0.10;;;0.10;;
64367;SDS011;50692;53.314;-6.300;2023-09-19T09:30:00;0.40;;;0.30;;
64367;SDS011;50692;53.314;-6.300;2023-09-19T09:32:48;0.60;;;0.10;;
64367;SDS011;50692;53.314;-6.300;2023-09-19T09:35:57;0.20;;;0.20;;
64367;SDS011;50692;53.314;-6.300;2023-09-19T09:38:48;0.40;;;0.20;;
64367;SDS011;50692;53.314;-6.300;2023-09-19T09:41:36;0.40;;;0.17;;
64367;SDS011;50692;53.314;-6.300;2023-09-19T09:44:25;0.10;;;0.10;;
64367;SDS011;50692;53.314;-6.300;2023-09-19T09:47:12;0.20;;;0.20;;
64367;SDS011;50692;53.314;-6.300;2023-09-19T09:50:29;0.52;;;0.28;;
64367;SDS011;50692;53.314;-6.300;2023-09-19T09:53:43;0.20;;;0.20;;
64367;SDS011;50692;53.314;-6.300;2023-09-19T09:56:31;0.28;;;0.10;;
64367;SDS011;50692;53.314;-6.300;2023-09-19T09:59:22;0.13;;;0.13;;
64367;SDS011;50692;53.314;-6.300;2023-09-19T10:02:09;1.00;;;0.20;;
64367;SDS011;50692;53.314;-6.300;2023-09-19T10:04:59;0.25;;;0.25;;
64367;SDS011;50692;53.314;-6.300;2023-09-19T10:07:59;0.40;;;0.35;;
64367;SDS011;50692;53.314;-6.300;2023-09-19T10:10:58;0.25;;;0.20;;
64367;SDS011;50692;53.314;-6.300;2023-09-19T10:13:51;0.20;;;0.20;;
64367;SDS011;50692;53.314;-6.300;2023-09-19T10:16:46;0.30;;;0.30;;
64367;SDS011;50692;53.314;-6.300;2023-09-19T10:19:36;0.20;;;0.20;;
64367;SDS011;50692;53.314;-6.300;2023-09-19T10:22:26;0.40;;;0.30;;
64367;SDS011;50692;53.314;-6.300;2023-09-19T10:25:12;1.58;;;0.60;;
64367;SDS011;50692;53.314;-6.300;2023-09-19T10:28:00;0.60;;;0.60;;
64367;SDS011;50692;53.314;-6.300;2023-09-19T10:30:50;1.00;;;0.40;;
64367;SDS011;50692;53.314;-6.300;2023-09-19T10:33:38;0.30;;;0.30;;
64367;SDS011;50692;53.314;-6.300;2023-09-19T10:36:26;0.60;;;0.40;;
64367;SDS011;50692;53.314;-6.300;2023-09-19T10:39:20;0.57;;;0.30;;
64367;SDS011;50692;53.314;-6.300;2023-09-19T10:42:06;0.30;;;0.30;;
64367;SDS011;50692;53.314;-6.300;2023-09-19T10:45:02;0.38;;;0.38;;
64367;SDS011;50692;53.314;-6.300;2023-09-19T10:47:53;0.30;;;0.30;;
64367;SDS011;50692;53.314;-6.300;2023-09-19T10:50:46;1.00;;;0.22;;
64367;SDS011;50692;53.314;-6.300;2023-09-19T10:56:58;0.28;;;0.28;;
64367;SDS011;50692;53.314;-6.300;2023-09-19T11:00:04;0.20;;;0.20;;
64367;SDS011;50692;53.314;-6.300;2023-09-19T11:06:03;0.75;;;0.30;;
64367;SDS011;50692;53.314;-6.300;2023-09-19T11:09:08;0.20;;;0.20;;
64367;SDS011;50692;53.314;-6.300;2023-09-19T11:12:00;2.03;;;0.30;;
64367;SDS011;50692;53.314;-6.300;2023-09-19T11:14:47;0.82;;;0.30;;
64367;SDS011;50692;53.314;-6.300;2023-09-19T11:17:37;0.20;;;0.20;;
64367;SDS011;50692;53.314;-6.300;2023-09-19T11:20:26;0.30;;;0.30;;
64367;SDS011;50692;53.314;-6.300;2023-09-19T11:23:25;0.27;;;0.27;;
64367;SDS011;50692;53.314;-6.300;2023-09-19T11:26:32;0.38;;;0.20;;
64367;SDS011;50692;53.314;-6.300;2023-09-19T11:29:32;0.17;;;0.17;;
64367;SDS011;50692;53.314;-6.300;2023-09-19T11:33:15;0.40;;;0.30;;
64367;SDS011;50692;53.314;-6.300;2023-09-19T11:39:04;0.73;;;0.40;;
64367;SDS011;50692;53.314;-6.300;2023-09-19T11:41:54;0.85;;;0.40;;
64367;SDS011;50692;53.314;-6.300;2023-09-19T11:44:42;0.32;;;0.32;;
64367;SDS011;50692;53.314;-6.300;2023-09-19T11:47:27;0.20;;;0.20;;
64367;SDS011;50692;53.314;-6.300;2023-09-19T11:50:17;1.42;;;0.70;;
64367;SDS011;50692;53.314;-6.300;2023-09-19T11:53:05;3.47;;;1.90;;
64367;SDS011;50692;53.314;-6.300;2023-09-19T11:55:52;0.47;;;0.30;;
64367;SDS011;50692;53.314;-6.300;2023-09-19T11:58:40;0.43;;;0.25;;
64367;SDS011;50692;53.314;-6.300;2023-09-19T12:01:31;0.35;;;0.30;;
64367;SDS011;50692;53.314;-6.300;2023-09-19T12:04:20;0.43;;;0.30;;
64367;SDS011;50692;53.314;-6.300;2023-09-19T12:07:18;0.52;;;0.30;;
64367;SDS011;50692;53.314;-6.300;2023-09-19T12:10:05;0.60;;;0.20;;
64367;SDS011;50692;53.314;-6.300;2023-09-19T12:12:54;0.43;;;0.43;;
64367;SDS011;50692;53.314;-6.300;2023-09-19T12:15:43;0.40;;;0.40;;
64367;SDS011;50692;53.314;-6.300;2023-09-19T12:18:33;0.30;;;0.20;;
64367;SDS011;50692;53.314;-6.300;2023-09-19T12:21:24;0.80;;;0.50;;
64367;SDS011;50692;53.314;-6.300;2023-09-19T12:24:13;0.85;;;0.30;;
64367;SDS011;50692;53.314;-6.300;2023-09-19T12:26:59;0.30;;;0.25;;
64367;SDS011;50692;53.314;-6.300;2023-09-19T12:29:47;0.20;;;0.20;;
64367;SDS011;50692;53.314;-6.300;2023-09-19T12:32:35;0.60;;;0.27;;
64367;SDS011;50692;53.314;-6.300;2023-09-19T12:35:31;0.65;;;0.30;;
64367;SDS011;50692;53.314;-6.300;2023-09-19T12:38:25;0.32;;;0.30;;
64367;SDS011;50692;53.314;-6.300;2023-09-19T12:41:18;0.82;;;0.30;;
64367;SDS011;50692;53.314;-6.300;2023-09-19T12:44:06;0.73;;;0.30;;
64367;SDS011;50692;53.314;-6.300;2023-09-19T12:46:54;0.30;;;0.20;;
64367;SDS011;50692;53.314;-6.300;2023-09-19T12:53:24;1.80;;;0.38;;
64367;SDS011;50692;53.314;-6.300;2023-09-19T12:56:11;0.80;;;0.30;;
64367;SDS011;50692;53.314;-6.300;2023-09-19T12:59:12;0.55;;;0.40;;
64367;SDS011;50692;53.314;-6.300;2023-09-19T13:02:03;0.30;;;0.30;;
64367;SDS011;50692;53.314;-6.300;2023-09-19T13:04:55;0.20;;;0.20;;
64367;SDS011;50692;53.314;-6.300;2023-09-19T13:07:45;0.28;;;0.28;;
64367;SDS011;50692;53.314;-6.300;2023-09-19T13:10:32;0.88;;;0.30;;
64367;SDS011;50692;53.314;-6.300;2023-09-19T13:13:24;0.60;;;0.40;;
64367;SDS011;50692;53.314;-6.300;2023-09-19T13:16:14;0.95;;;0.30;;
64367;SDS011;50692;53.314;-6.300;2023-09-19T13:19:07;0.50;;;0.30;;
64367;SDS011;50692;53.314;-6.300;2023-09-19T13:21:55;1.08;;;0.30;;
64367;SDS011;50692;53.314;-6.300;2023-09-19T13:24:43;0.20;;;0.20;;
64367;SDS011;50692;53.314;-6.300;2023-09-19T13:27:30;1.30;;;0.28;;
64367;SDS011;50692;53.314;-6.300;2023-09-19T13:30:26;0.30;;;0.20;;
64367;SDS011;50692;53.314;-6.300;2023-09-19T13:33:16;0.30;;;0.20;;
64367;SDS011;50692;53.314;-6.300;2023-09-19T13:36:06;2.03;;;0.40;;
64367;SDS011;50692;53.314;-6.300;2023-09-19T13:38:52;0.20;;;0.20;;
64367;SDS011;50692;53.314;-6.300;2023-09-19T13:41:41;0.40;;;0.40;;
64367;SDS011;50692;53.314;-6.300;2023-09-19T13:44:28;0.52;;;0.50;;
64367;SDS011;50692;53.314;-6.300;2023-09-19T13:47:15;1.10;;;0.60;;
64367;SDS011;50692;53.314;-6.300;2023-09-19T13:50:02;1.73;;;0.60;;
64367;SDS011;50692;53.314;-6.300;2023-09-19T13:52:50;2.70;;;0.77;;
64367;SDS011;50692;53.314;-6.300;2023-09-19T13:55:37;0.93;;;0.65;;
64367;SDS011;50692;53.314;-6.300;2023-09-19T13:58:24;0.82;;;0.50;;
64367;SDS011;50692;53.314;-6.300;2023-09-19T14:01:10;0.60;;;0.40;;
64367;SDS011;50692;53.314;-6.300;2023-09-19T14:03:58;0.82;;;0.35;;
64367;SDS011;50692;53.314;-6.300;2023-09-19T14:06:44;0.93;;;0.55;;
64367;SDS011;50692;53.314;-6.300;2023-09-19T14:09:31;0.73;;;0.50;;
64367;SDS011;50692;53.314;-6.300;2023-09-19T14:12:19;1.17;;;0.68;;
64367;SDS011;50692;53.314;-6.300;2023-09-19T14:15:09;1.88;;;0.77;;
64367;SDS011;50692;53.314;-6.300;2023-09-19T14:17:57;0.75;;;0.63;;
64367;SDS011;50692;53.314;-6.300;2023-09-19T14:20:47;2.03;;;0.80;;
64367;SDS011;50692;53.314;-6.300;2023-09-19T14:23:37;4.18;;;1.10;;
64367;SDS011;50692;53.314;-6.300;2023-09-19T14:26:35;1.65;;;0.95;;
64367;SDS011;50692;53.314;-6.300;2023-09-19T14:29:22;1.75;;;0.95;;
64367;SDS011;50692;53.314;-6.300;2023-09-19T14:32:14;3.55;;;1.35;;
64367;SDS011;50692;53.314;-6.300;2023-09-19T14:35:02;3.50;;;1.48;;
64367;SDS011;50692;53.314;-6.300;2023-09-19T14:37:50;5.10;;;1.83;;
64367;SDS011;50692;53.314;-6.300;2023-09-19T14:40:39;4.60;;;1.58;;
64367;SDS011;50692;53.314;-6.300;2023-09-19T14:43:25;5.75;;;1.83;;
64367;SDS011;50692;53.314;-6.300;2023-09-19T14:46:13;5.72;;;2.22;;
64367;SDS011;50692;53.314;-6.300;2023-09-19T14:49:00;7.40;;;2.10;;
64367;SDS011;50692;53.314;-6.300;2023-09-19T14:51:48;5.47;;;2.07;;
64367;SDS011;50692;53.314;-6.300;2023-09-19T14:54:35;7.80;;;2.75;;
64367;SDS011;50692;53.314;-6.300;2023-09-19T14:57:23;7.97;;;2.35;;
64367;SDS011;50692;53.314;-6.300;2023-09-19T15:03:20;5.95;;;2.20;;
64367;SDS011;50692;53.314;-6.300;2023-09-19T15:06:12;5.40;;;2.20;;
64367;SDS011;50692;53.314;-6.300;2023-09-19T15:09:05;6.00;;;2.53;;
64367;SDS011;50692;53.314;-6.300;2023-09-19T15:11:54;4.13;;;1.75;;
64367;SDS011;50692;53.314;-6.300;2023-09-19T15:14:41;5.60;;;2.00;;
64367;SDS011;50692;53.314;-6.300;2023-09-19T15:17:29;6.22;;;2.63;;
64367;SDS011;50692;53.314;-6.300;2023-09-19T15:20:15;7.22;;;2.75;;
64367;SDS011;50692;53.314;-6.300;2023-09-19T15:23:03;6.45;;;2.90;;
64367;SDS011;50692;53.314;-6.300;2023-09-19T15:25:50;5.93;;;2.30;;
64367;SDS011;50692;53.314;-6.300;2023-09-19T15:28:36;5.50;;;2.45;;
64367;SDS011;50692;53.314;-6.300;2023-09-19T15:31:24;9.45;;;2.97;;
64367;SDS011;50692;53.314;-6.300;2023-09-19T15:34:11;8.17;;;2.67;;
64367;SDS011;50692;53.314;-6.300;2023-09-19T15:37:01;6.60;;;2.38;;
64367;SDS011;50692;53.314;-6.300;2023-09-19T15:39:56;7.95;;;2.50;;
64367;SDS011;50692;53.314;-6.300;2023-09-19T15:42:42;6.20;;;2.30;;
64367;SDS011;50692;53.314;-6.300;2023-09-19T15:45:29;6.45;;;2.20;;
64367;SDS011;50692;53.314;-6.300;2023-09-19T15:51:04;4.05;;;1.80;;
64367;SDS011;50692;53.314;-6.300;2023-09-19T15:53:52;6.07;;;2.03;;
64367;SDS011;50692;53.314;-6.300;2023-09-19T15:56:43;3.72;;;1.85;;
64367;SDS011;50692;53.314;-6.300;2023-09-19T15:59:31;4.68;;;1.90;;
64367;SDS011;50692;53.314;-6.300;2023-09-19T16:02:17;6.63;;;1.83;;
64367;SDS011;50692;53.314;-6.300;2023-09-19T16:05:04;3.35;;;1.63;;
64367;SDS011;50692;53.314;-6.300;2023-09-19T16:07:51;3.03;;;1.60;;
64367;SDS011;50692;53.314;-6.300;2023-09-19T16:10:38;4.22;;;1.27;;
64367;SDS011;50692;53.314;-6.300;2023-09-19T16:13:25;2.40;;;1.20;;
64367;SDS011;50692;53.314;-6.300;2023-09-19T16:16:11;5.53;;;1.80;;
64367;SDS011;50692;53.314;-6.300;2023-09-19T16:18:59;6.75;;;1.90;;
64367;SDS011;50692;53.314;-6.300;2023-09-19T16:21:48;4.65;;;1.60;;
64367;SDS011;50692;53.314;-6.300;2023-09-19T16:24:34;5.93;;;1.70;;
64367;SDS011;50692;53.314;-6.300;2023-09-19T16:27:20;3.65;;;1.73;;
64367;SDS011;50692;53.314;-6.300;2023-09-19T16:30:08;4.70;;;1.60;;
64367;SDS011;50692;53.314;-6.300;2023-09-19T16:32:55;3.30;;;1.65;;
64367;SDS011;50692;53.314;-6.300;2023-09-19T16:35:41;3.58;;;1.45;;
64367;SDS011;50692;53.314;-6.300;2023-09-19T16:38:27;3.85;;;1.35;;
64367;SDS011;50692;53.314;-6.300;2023-09-19T16:41:17;2.70;;;1.60;;
64367;SDS011;50692;53.314;-6.300;2023-09-19T16:44:04;3.78;;;1.60;;
64367;SDS011;50692;53.314;-6.300;2023-09-19T16:46:52;5.13;;;1.50;;
64367;SDS011;50692;53.314;-6.300;2023-09-19T16:49:38;3.85;;;1.15;;
64367;SDS011;50692;53.314;-6.300;2023-09-19T16:52:24;4.30;;;2.00;;
64367;SDS011;50692;53.314;-6.300;2023-09-19T16:55:10;5.32;;;1.67;;
64367;SDS011;50692;53.314;-6.300;2023-09-19T16:57:59;2.60;;;1.55;;
64367;SDS011;50692;53.314;-6.300;2023-09-19T17:00:45;3.20;;;1.70;;
64367;SDS011;50692;53.314;-6.300;2023-09-19T17:03:32;3.78;;;1.50;;
64367;SDS011;50692;53.314;-6.300;2023-09-19T17:06:20;3.90;;;1.40;;
64367;SDS011;50692;53.314;-6.300;2023-09-19T17:09:09;4.30;;;1.75;;
64367;SDS011;50692;53.314;-6.300;2023-09-19T17:11:55;1.70;;;0.90;;
64367;SDS011;50692;53.314;-6.300;2023-09-19T17:14:43;2.67;;;1.08;;
64367;SDS011;50692;53.314;-6.300;2023-09-19T17:17:29;2.33;;;1.15;;
64367;SDS011;50692;53.314;-6.300;2023-09-19T17:20:15;1.73;;;1.30;;
64367;SDS011;50692;53.314;-6.300;2023-09-19T17:23:01;2.38;;;1.30;;
64367;SDS011;50692;53.314;-6.300;2023-09-19T17:25:47;1.58;;;0.90;;
64367;SDS011;50692;53.314;-6.300;2023-09-19T17:28:34;1.98;;;0.80;;